createdAt,value
2022-09-18T00:00:18.652Z,3.40
2022-09-18T00:02:45.893Z,3.38
2022-09-18T00:05:13.181Z,3.75
2022-09-18T00:07:40.435Z,3.38
2022-09-18T00:10:07.908Z,3.40
2022-09-18T00:12:35.128Z,2.83
2022-09-18T00:15:02.386Z,3.15
2022-09-18T00:17:29.600Z,3.28
2022-09-18T00:19:56.961Z,3.28
2022-09-18T00:22:24.315Z,2.70
2022-09-18T00:24:51.529Z,3.30
2022-09-18T00:27:18.778Z,2.75
2022-09-18T00:29:46.026Z,2.55
2022-09-18T00:32:13.337Z,2.67
2022-09-18T00:34:41.620Z,2.45
2022-09-18T00:37:09.184Z,2.47
2022-09-18T00:39:36.400Z,2.75
2022-09-18T00:42:03.762Z,3.20
2022-09-18T00:44:31.146Z,3.80
2022-09-18T00:47:18.849Z,4.13
2022-09-18T00:49:46.053Z,4.32
2022-09-18T00:52:14.638Z,4.50
2022-09-18T00:54:42.777Z,4.68
2022-09-18T00:57:14.701Z,4.55
2022-09-18T00:59:43.828Z,5.50
2022-09-18T01:02:13.728Z,4.88
2022-09-18T01:04:41.165Z,5.10
2022-09-18T01:07:17.404Z,5.10
2022-09-18T01:09:50.833Z,5.30
2022-09-18T01:12:21.142Z,4.97
2022-09-18T01:15:08.641Z,5.10
2022-09-18T01:17:54.846Z,4.95
2022-09-18T01:20:40.640Z,5.60
2022-09-18T01:23:23.216Z,5.90
2022-09-18T01:25:50.463Z,5.50
2022-09-18T01:28:22.301Z,5.70
2022-09-18T01:30:51.579Z,5.43
2022-09-18T01:33:27.362Z,5.50
2022-09-18T01:35:56.726Z,5.30
2022-09-18T01:38:30.114Z,6.05
2022-09-18T01:41:01.996Z,6.13
2022-09-18T01:43:30.448Z,6.47
2022-09-18T01:46:00.862Z,6.25
2022-09-18T01:48:40.024Z,6.70
2022-09-18T01:51:13.171Z,7.28
2022-09-18T01:53:46.646Z,7.38
2022-09-18T01:56:17.135Z,6.80
2022-09-18T01:58:45.066Z,6.68
2022-09-18T02:01:16.011Z,6.65
2022-09-18T02:03:45.715Z,6.07
2022-09-18T02:06:28.956Z,6.70
2022-09-18T02:08:56.822Z,5.57
2022-09-18T02:11:24.397Z,5.63
2022-09-18T02:14:06.575Z,5.60
2022-09-18T02:16:45.118Z,5.75
2022-09-18T02:19:31.595Z,4.55
2022-09-18T02:21:59.798Z,4.82
2022-09-18T02:24:29.711Z,4.20
2022-09-18T02:26:57.155Z,3.75
2022-09-18T02:29:25.345Z,3.72
2022-09-18T02:31:52.934Z,3.47
2022-09-18T02:34:21.367Z,3.33
2022-09-18T02:36:57.580Z,2.88
2022-09-18T02:39:28.058Z,3.05
2022-09-18T02:42:08.870Z,3.03
2022-09-18T02:44:56.365Z,2.88
2022-09-18T02:47:42.183Z,2.55
2022-09-18T02:50:12.239Z,2.40
2022-09-18T02:52:55.917Z,2.50
2022-09-18T02:55:26.145Z,2.30
2022-09-18T02:57:57.112Z,2.30
2022-09-18T03:00:25.979Z,2.25
2022-09-18T03:02:53.355Z,2.50
2022-09-18T03:05:20.673Z,2.28
2022-09-18T03:07:47.936Z,2.30
2022-09-18T03:10:15.204Z,2.17
2022-09-18T03:12:42.449Z,1.98
2022-09-18T03:15:11.114Z,1.98
2022-09-18T03:17:38.522Z,2.00
2022-09-18T03:20:08.959Z,1.70
2022-09-18T03:22:36.325Z,1.70
2022-09-18T03:25:03.618Z,1.98
2022-09-18T03:27:30.868Z,1.88
2022-09-18T03:29:58.133Z,1.90
2022-09-18T03:32:25.402Z,1.80
2022-09-18T03:34:52.624Z,2.10
2022-09-18T03:37:19.870Z,1.60
2022-09-18T03:39:47.096Z,1.90
2022-09-18T03:42:15.061Z,1.83
2022-09-18T03:44:42.330Z,1.70
2022-09-18T03:47:09.763Z,2.20
2022-09-18T03:49:37.016Z,2.15
2022-09-18T03:52:04.488Z,1.95
2022-09-18T03:54:31.866Z,2.10
2022-09-18T03:56:59.128Z,2.00
2022-09-18T03:59:26.351Z,2.85
2022-09-18T04:01:53.661Z,2.50
2022-09-18T04:04:21.016Z,2.70
2022-09-18T04:06:48.294Z,2.80
2022-09-18T04:09:16.628Z,2.92
2022-09-18T04:11:44.033Z,2.88
2022-09-18T04:14:11.775Z,2.08
2022-09-18T04:16:39.327Z,2.60
2022-09-18T04:19:06.540Z,2.53
2022-09-18T04:21:33.801Z,2.67
2022-09-18T04:24:01.169Z,3.05
2022-09-18T04:26:36.157Z,2.90
2022-09-18T04:29:03.594Z,3.95
2022-09-18T04:31:30.929Z,3.67
2022-09-18T04:33:58.294Z,3.53
2022-09-18T04:36:28.086Z,3.30
2022-09-18T04:38:55.309Z,3.80
2022-09-18T04:41:22.555Z,3.72
2022-09-18T04:43:49.754Z,3.85
2022-09-18T04:46:17.046Z,3.65
2022-09-18T04:48:48.236Z,3.90
2022-09-18T04:53:42.585Z,3.30
2022-09-18T04:56:09.814Z,3.35
2022-09-18T04:58:37.065Z,3.67
2022-09-18T05:01:04.429Z,3.28
2022-09-18T05:03:31.701Z,3.30
2022-09-18T05:05:58.932Z,3.30
2022-09-18T05:08:26.171Z,3.95
2022-09-18T05:10:53.429Z,3.67
2022-09-18T05:13:20.660Z,3.63
2022-09-18T05:15:50.146Z,3.30
2022-09-18T05:18:17.484Z,3.10
2022-09-18T05:20:44.717Z,3.83
2022-09-18T05:23:11.944Z,4.20
2022-09-18T05:25:39.185Z,4.50
2022-09-18T05:28:06.422Z,4.03
2022-09-18T05:30:33.966Z,3.92
2022-09-18T05:33:02.154Z,4.25
2022-09-18T05:35:30.467Z,4.07
2022-09-18T05:37:57.844Z,3.60
2022-09-18T05:40:26.410Z,3.50
2022-09-18T05:42:54.082Z,3.75
2022-09-18T05:45:21.828Z,3.35
2022-09-18T05:47:55.449Z,3.60
2022-09-18T05:50:23.577Z,3.53
2022-09-18T05:53:11.057Z,3.00
2022-09-18T05:55:38.345Z,3.58
2022-09-18T05:58:06.152Z,3.53
2022-09-18T06:00:34.747Z,3.45
2022-09-18T06:03:03.956Z,3.58
2022-09-18T06:05:32.066Z,3.60
2022-09-18T06:08:00.235Z,3.50
2022-09-18T06:10:28.000Z,3.75
2022-09-18T06:13:01.769Z,3.45
2022-09-18T06:15:29.175Z,3.78
2022-09-18T06:17:56.456Z,3.70
2022-09-18T06:20:23.969Z,3.30
2022-09-18T06:22:51.344Z,3.00
2022-09-18T06:25:21.707Z,3.20
2022-09-18T06:27:58.578Z,3.10
2022-09-18T06:30:26.410Z,3.03
2022-09-18T06:32:54.327Z,3.15
2022-09-18T06:35:21.650Z,2.88
2022-09-18T06:37:48.867Z,2.95
2022-09-18T06:40:16.162Z,2.92
2022-09-18T06:42:46.063Z,3.10
2022-09-18T06:45:13.475Z,2.95
2022-09-18T06:47:40.769Z,2.38
2022-09-18T06:50:09.060Z,2.10
2022-09-18T06:52:37.011Z,2.25
2022-09-18T06:55:04.431Z,2.45
2022-09-18T06:57:31.722Z,2.30
2022-09-18T06:59:58.962Z,2.10
2022-09-18T07:02:26.221Z,2.10
2022-09-18T07:04:53.504Z,2.22
2022-09-18T07:07:20.772Z,2.33
2022-09-18T07:09:48.063Z,2.03
2022-09-18T07:12:15.315Z,2.40
2022-09-18T07:14:42.653Z,1.90
2022-09-18T07:17:14.093Z,1.95
2022-09-18T07:19:45.550Z,2.05
2022-09-18T07:22:12.832Z,1.90
2022-09-18T07:24:40.037Z,1.90
2022-09-18T07:27:07.809Z,1.90
2022-09-18T07:29:35.027Z,1.77
2022-09-18T07:32:02.342Z,1.80
2022-09-18T07:34:30.166Z,1.90
2022-09-18T07:36:57.394Z,1.90
2022-09-18T07:39:24.764Z,1.70
2022-09-18T07:41:52.244Z,1.77
2022-09-18T07:44:19.506Z,1.67
2022-09-18T07:46:47.191Z,1.80
2022-09-18T07:49:14.502Z,1.90
2022-09-18T07:51:41.811Z,2.10
2022-09-18T07:54:09.054Z,1.60
2022-09-18T07:56:36.394Z,1.70
2022-09-18T07:59:03.702Z,1.60
2022-09-18T08:01:33.695Z,1.45
2022-09-18T08:04:02.233Z,1.70
2022-09-18T08:06:29.571Z,1.52
2022-09-18T08:08:57.220Z,1.65
2022-09-18T08:11:24.527Z,1.73
2022-09-18T08:13:52.101Z,1.52
2022-09-18T08:16:19.436Z,1.35
2022-09-18T08:18:46.792Z,1.48
2022-09-18T08:21:13.996Z,1.60
2022-09-18T08:23:41.261Z,1.55
2022-09-18T08:26:08.814Z,1.60
2022-09-18T08:28:36.091Z,1.52
2022-09-18T08:31:03.419Z,1.33
2022-09-18T08:33:31.103Z,1.45
2022-09-18T08:35:58.421Z,1.23
2022-09-18T08:38:25.654Z,1.35
2022-09-18T08:40:59.865Z,1.63
2022-09-18T08:43:50.099Z,1.23
2022-09-18T08:46:26.126Z,1.42
2022-09-18T08:49:02.545Z,1.10
2022-09-18T08:51:34.654Z,1.27
2022-09-18T08:54:19.652Z,1.20
2022-09-18T08:56:47.534Z,1.25
2022-09-18T08:59:17.870Z,1.42
2022-09-18T09:02:02.468Z,1.35
2022-09-18T09:04:29.939Z,1.35
2022-09-18T09:07:04.695Z,1.35
2022-09-18T09:09:32.157Z,1.33
2022-09-18T09:12:02.741Z,1.27
2022-09-18T09:14:56.146Z,1.40
2022-09-18T09:17:29.245Z,1.40
2022-09-18T09:20:08.107Z,1.70
2022-09-18T09:22:35.298Z,1.58
2022-09-18T09:25:23.851Z,1.58
2022-09-18T09:27:59.198Z,1.85
2022-09-18T09:30:28.197Z,1.85
2022-09-18T09:32:58.313Z,1.50
2022-09-18T09:35:39.541Z,1.30
2022-09-18T09:40:40.889Z,1.67
2022-09-18T09:43:20.787Z,1.38
2022-09-18T09:45:49.087Z,1.40
2022-09-18T09:48:16.324Z,1.40
2022-09-18T09:50:52.630Z,1.40
2022-09-18T09:53:20.655Z,1.40
2022-09-18T09:56:09.873Z,1.35
2022-09-18T09:58:40.226Z,1.30
2022-09-18T10:01:12.337Z,1.80
2022-09-18T10:03:45.788Z,1.65
2022-09-18T10:06:19.149Z,1.30
2022-09-18T10:08:50.363Z,1.63
2022-09-18T10:13:47.649Z,1.52
2022-09-18T10:16:19.903Z,1.40
2022-09-18T10:18:51.017Z,1.77
2022-09-18T10:24:05.727Z,1.70
2022-09-18T10:26:37.114Z,1.98
2022-09-18T10:29:04.396Z,2.33
2022-09-18T10:31:51.333Z,2.50
2022-09-18T10:34:30.556Z,2.35
2022-09-18T10:36:57.972Z,1.58
2022-09-18T10:43:04.841Z,1.33
2022-09-18T10:45:36.494Z,1.20
2022-09-18T10:48:07.910Z,1.20
2022-09-18T10:50:35.138Z,1.00
2022-09-18T10:53:25.491Z,0.82
2022-09-18T10:55:55.728Z,0.88
2022-09-18T10:58:30.137Z,0.90
2022-09-18T11:01:05.677Z,0.80
2022-09-18T11:03:43.857Z,0.70
2022-09-18T11:06:11.163Z,0.70
2022-09-18T11:08:43.295Z,1.20
2022-09-18T11:11:20.469Z,1.42
2022-09-18T11:13:52.679Z,2.75
2022-09-18T11:16:24.202Z,6.13
2022-09-18T11:19:06.499Z,7.00
2022-09-18T11:21:34.850Z,7.95
2022-09-18T11:24:03.240Z,9.13
2022-09-18T11:26:31.648Z,8.82
2022-09-18T11:29:03.091Z,7.43
2022-09-18T11:31:44.845Z,7.20
2022-09-18T11:34:21.446Z,6.43
2022-09-18T11:36:52.856Z,6.47
2022-09-18T11:39:24.678Z,6.07
2022-09-18T11:41:52.624Z,4.82
2022-09-18T11:44:23.191Z,4.65
2022-09-18T11:47:09.141Z,4.60
2022-09-18T11:49:45.450Z,4.38
2022-09-18T11:52:24.935Z,4.18
2022-09-18T11:54:55.186Z,4.28
2022-09-18T11:57:26.271Z,4.50
2022-09-18T12:00:13.929Z,4.85
2022-09-18T12:02:59.861Z,4.32
2022-09-18T12:05:34.638Z,5.28
2022-09-18T12:08:12.558Z,4.75
2022-09-18T12:10:45.606Z,2.85
2022-09-18T12:13:24.104Z,3.90
2022-09-18T12:15:55.377Z,6.20
2022-09-18T12:18:25.593Z,5.60
2022-09-18T12:20:55.205Z,5.70
2022-09-18T12:23:26.496Z,5.22
2022-09-18T12:25:59.883Z,3.50
2022-09-18T12:28:39.448Z,1.10
2022-09-18T12:31:16.582Z,1.10
2022-09-18T12:33:55.997Z,1.60
2022-09-18T12:36:26.207Z,0.70
2022-09-18T12:39:01.105Z,0.77
2022-09-18T12:41:31.781Z,1.10
2022-09-18T12:44:10.960Z,0.90
2022-09-18T12:46:46.491Z,1.00
2022-09-18T12:49:22.620Z,0.60
2022-09-18T12:52:07.894Z,0.50
2022-09-18T12:54:53.920Z,0.73
2022-09-18T12:57:21.229Z,0.52
2022-09-18T12:59:52.546Z,0.35
2022-09-18T13:02:28.863Z,0.38
2022-09-18T13:05:12.048Z,0.50
2022-09-18T13:07:48.461Z,0.40
2022-09-18T13:10:15.687Z,0.57
2022-09-18T13:12:47.700Z,0.40
2022-09-18T13:15:20.529Z,0.50
2022-09-18T13:17:51.874Z,0.50
2022-09-18T13:20:48.664Z,0.32
2022-09-18T13:23:20.528Z,0.45
2022-09-18T13:25:51.658Z,0.70
2022-09-18T13:30:46.585Z,0.40
2022-09-18T13:33:24.367Z,0.60
2022-09-18T13:35:55.066Z,0.32
2022-09-18T13:38:23.796Z,0.63
2022-09-18T13:41:04.817Z,0.52
2022-09-18T13:43:32.094Z,0.60
2022-09-18T13:46:03.465Z,1.10
2022-09-18T13:48:44.897Z,0.50
2022-09-18T13:51:19.181Z,0.50
2022-09-18T13:53:46.578Z,0.52
2022-09-18T13:56:14.882Z,0.50
2022-09-18T13:58:56.098Z,0.50
2022-09-18T14:03:50.451Z,0.43
2022-09-18T14:06:36.123Z,0.50
2022-09-18T14:09:23.604Z,0.50
2022-09-18T14:11:50.874Z,0.40
2022-09-18T14:14:21.604Z,0.47
2022-09-18T14:16:49.150Z,0.60
2022-09-18T14:19:33.266Z,0.63
2022-09-18T14:22:01.619Z,0.55
2022-09-18T14:24:39.748Z,0.70
2022-09-18T14:27:25.843Z,0.70
2022-09-18T14:29:56.928Z,0.70
2022-09-18T14:32:24.787Z,0.70
2022-09-18T14:34:55.089Z,0.40
2022-09-18T14:37:33.153Z,1.07
2022-09-18T14:40:00.732Z,1.20
2022-09-18T14:42:32.451Z,0.82
2022-09-18T14:45:20.557Z,0.75
2022-09-18T14:47:49.607Z,0.90
2022-09-18T14:50:32.371Z,0.55
2022-09-18T14:53:00.817Z,0.70
2022-09-18T14:55:32.000Z,0.88
2022-09-18T15:00:28.234Z,0.60
2022-09-18T15:02:58.426Z,2.08
2022-09-18T15:05:27.106Z,0.60
2022-09-18T15:07:57.521Z,1.00
2022-09-18T15:10:26.116Z,0.80
2022-09-18T15:12:53.730Z,0.80
2022-09-18T15:15:33.123Z,0.70
2022-09-18T15:18:01.344Z,0.90
2022-09-18T15:20:29.418Z,0.90
2022-09-18T15:22:56.902Z,0.90
2022-09-18T15:25:31.848Z,1.55
2022-09-18T15:28:01.494Z,1.48
2022-09-18T15:30:28.815Z,1.30
2022-09-18T15:33:01.505Z,1.20
2022-09-18T15:35:31.750Z,1.13
2022-09-18T15:38:03.029Z,1.20
2022-09-18T15:40:33.016Z,1.00
2022-09-18T15:43:02.449Z,1.00
2022-09-18T15:45:33.976Z,0.80
2022-09-18T15:48:02.684Z,0.80
2022-09-18T15:50:37.211Z,1.00
2022-09-18T15:53:14.535Z,0.80
2022-09-18T15:55:53.791Z,1.13
2022-09-18T15:58:44.969Z,1.15
2022-09-18T16:01:16.577Z,1.33
2022-09-18T16:03:44.052Z,1.48
2022-09-18T16:06:20.796Z,1.35
2022-09-18T16:08:52.270Z,1.40
2022-09-18T16:11:37.679Z,1.42
2022-09-18T16:14:14.201Z,1.10
2022-09-18T16:16:41.537Z,1.30
2022-09-18T16:19:13.269Z,1.15
2022-09-18T16:21:42.035Z,1.55
2022-09-18T16:24:19.362Z,1.50
2022-09-18T16:26:46.601Z,2.08
2022-09-18T16:29:20.900Z,2.30
2022-09-18T16:31:48.509Z,2.53
2022-09-18T16:34:23.235Z,2.22
2022-09-18T16:36:51.156Z,2.13
2022-09-18T16:39:19.680Z,2.42
2022-09-18T16:41:47.307Z,2.53
2022-09-18T16:44:15.319Z,2.47
2022-09-18T16:46:48.317Z,2.30
2022-09-18T16:49:18.508Z,1.95
2022-09-18T16:51:45.762Z,2.00
2022-09-18T16:54:12.988Z,2.78
2022-09-18T16:56:51.807Z,3.50
2022-09-18T16:59:21.446Z,3.08
2022-09-18T17:02:03.340Z,3.00
2022-09-18T17:04:31.526Z,3.08
2022-09-18T17:06:58.836Z,3.22
2022-09-18T17:09:26.539Z,2.95
2022-09-18T17:11:54.968Z,3.65
2022-09-18T17:14:22.781Z,3.55
2022-09-18T17:16:50.032Z,3.83
2022-09-18T17:19:17.327Z,4.00
2022-09-18T17:21:44.679Z,3.53
2022-09-18T17:24:12.326Z,4.10
2022-09-18T17:26:40.497Z,4.93
2022-09-18T17:29:09.409Z,4.15
2022-09-18T17:31:36.671Z,3.90
2022-09-18T17:34:04.096Z,4.03
2022-09-18T17:36:31.653Z,4.28
2022-09-18T17:39:02.303Z,4.50
2022-09-18T17:41:29.881Z,4.30
2022-09-18T17:43:59.419Z,4.80
2022-09-18T17:46:26.687Z,5.88
2022-09-18T17:48:54.702Z,6.20
2022-09-18T17:51:25.603Z,6.50
2022-09-18T17:53:59.828Z,6.35
2022-09-18T17:56:30.014Z,5.78
2022-09-18T17:59:00.026Z,6.77
2022-09-18T18:01:28.286Z,6.95
2022-09-18T18:03:55.599Z,7.20
2022-09-18T18:06:22.964Z,7.75
2022-09-18T18:08:51.200Z,7.32
2022-09-18T18:11:19.845Z,8.43
2022-09-18T18:13:49.875Z,7.65
2022-09-18T18:16:25.652Z,7.53
2022-09-18T18:18:56.254Z,8.73
2022-09-18T18:21:23.526Z,9.80
2022-09-18T18:23:55.492Z,16.17
2022-09-18T18:26:22.743Z,11.93
2022-09-18T18:28:50.413Z,11.60
2022-09-18T18:31:17.892Z,9.57
2022-09-18T18:33:45.346Z,9.20
2022-09-18T18:36:14.697Z,7.57
2022-09-18T18:38:50.335Z,7.22
2022-09-18T18:41:19.251Z,6.97
2022-09-18T18:43:46.671Z,5.68
2022-09-18T18:46:15.509Z,6.15
2022-09-18T18:48:43.828Z,6.38
2022-09-18T18:51:16.265Z,6.32
2022-09-18T18:53:44.039Z,6.60
2022-09-18T18:56:12.812Z,6.60
2022-09-18T18:58:40.492Z,6.43
2022-09-18T19:01:15.221Z,6.18
2022-09-18T19:03:44.348Z,6.35
2022-09-18T19:06:12.173Z,6.30
2022-09-18T19:08:40.122Z,7.13
2022-09-18T19:11:07.779Z,6.75
2022-09-18T19:13:41.405Z,7.38
2022-09-18T19:16:11.548Z,6.68
2022-09-18T19:18:39.014Z,7.47
2022-09-18T19:21:06.556Z,6.90
2022-09-18T19:23:33.909Z,6.70
2022-09-18T19:26:08.498Z,7.47
2022-09-18T19:28:35.769Z,6.68
2022-09-18T19:31:04.275Z,8.07
2022-09-18T19:33:33.176Z,8.40
2022-09-18T19:36:06.958Z,7.93
2022-09-18T19:38:37.114Z,7.15
2022-09-18T19:41:11.047Z,6.03
2022-09-18T19:43:38.394Z,4.57
2022-09-18T19:46:08.018Z,4.30
2022-09-18T19:48:35.462Z,3.88
2022-09-18T19:51:02.766Z,2.97
2022-09-18T19:53:29.976Z,3.00
2022-09-18T19:55:57.234Z,3.63
2022-09-18T19:58:24.473Z,3.40
2022-09-18T20:00:51.743Z,4.20
2022-09-18T20:03:19.280Z,3.67
2022-09-18T20:05:46.514Z,4.35
2022-09-18T20:08:13.785Z,4.80
2022-09-18T20:10:41.530Z,4.28
2022-09-18T20:13:10.752Z,4.47
2022-09-18T20:15:38.058Z,4.35
2022-09-18T20:18:06.137Z,4.07
2022-09-18T20:20:37.414Z,4.30
2022-09-18T20:23:07.475Z,4.15
2022-09-18T20:25:38.522Z,3.67
2022-09-18T20:28:05.756Z,3.83
2022-09-18T20:30:33.054Z,3.80
2022-09-18T20:33:01.916Z,3.42
2022-09-18T20:35:29.118Z,3.85
2022-09-18T20:37:57.586Z,3.67
2022-09-18T20:40:24.924Z,3.15
2022-09-18T20:42:52.634Z,3.35
2022-09-18T20:45:20.390Z,3.67
2022-09-18T20:47:47.739Z,3.60
2022-09-18T20:50:15.474Z,3.13
2022-09-18T20:52:43.707Z,3.30
2022-09-18T20:55:12.534Z,3.95
2022-09-18T20:57:40.471Z,4.50
2022-09-18T21:00:09.166Z,4.40
2022-09-18T21:02:36.911Z,4.50
2022-09-18T21:05:13.117Z,4.75
2022-09-18T21:07:41.071Z,4.82
2022-09-18T21:10:08.887Z,6.38
2022-09-18T21:12:38.823Z,6.40
2022-09-18T21:15:11.147Z,6.35
2022-09-18T21:17:38.649Z,6.10
2022-09-18T21:20:06.919Z,5.40
2022-09-18T21:22:54.194Z,5.15
2022-09-18T21:25:22.332Z,5.13
2022-09-18T21:27:49.701Z,4.43
2022-09-18T21:30:16.949Z,6.13
2022-09-18T21:32:44.184Z,6.43
2022-09-18T21:35:11.430Z,6.55
2022-09-18T21:37:38.689Z,6.30
2022-09-18T21:40:06.315Z,7.05
2022-09-18T21:42:34.745Z,7.63
2022-09-18T21:45:03.528Z,6.88
2022-09-18T21:47:31.944Z,6.72
2022-09-18T21:49:59.667Z,7.38
2022-09-18T21:52:27.257Z,7.55
2022-09-18T21:54:54.628Z,7.53
2022-09-18T21:57:22.324Z,8.00
2022-09-18T21:59:49.807Z,7.93
2022-09-18T22:02:20.563Z,7.90
2022-09-18T22:04:47.789Z,8.35
2022-09-18T22:07:17.662Z,9.20
2022-09-18T22:09:45.093Z,8.10
2022-09-18T22:12:12.986Z,8.50
2022-09-18T22:14:40.266Z,8.43
2022-09-18T22:17:08.422Z,8.20
2022-09-18T22:19:40.532Z,7.88
2022-09-18T22:22:14.405Z,7.20
2022-09-18T22:24:41.664Z,5.93
2022-09-18T22:27:10.291Z,6.40
2022-09-18T22:29:38.517Z,6.13
2022-09-18T22:32:06.206Z,5.40
2022-09-18T22:34:37.388Z,5.93
2022-09-18T22:39:31.878Z,5.95
2022-09-18T22:41:59.362Z,5.43
2022-09-18T22:44:26.740Z,6.15
2022-09-18T22:46:54.317Z,6.95
2022-09-18T22:49:22.629Z,6.30
2022-09-18T22:51:50.575Z,6.85
2022-09-18T22:54:17.946Z,6.63
2022-09-18T22:56:48.471Z,6.35
2022-09-18T22:59:16.467Z,6.10
2022-09-18T23:01:50.445Z,6.40
2022-09-18T23:04:18.922Z,6.18
2022-09-18T23:06:47.382Z,5.70
2022-09-18T23:09:15.096Z,5.32
2022-09-18T23:11:42.727Z,4.15
2022-09-18T23:14:13.254Z,4.00
2022-09-18T23:16:40.738Z,3.38
2022-09-18T23:19:11.970Z,3.05
2022-09-18T23:24:09.072Z,2.95
2022-09-18T23:26:38.176Z,2.70
2022-09-18T23:29:06.798Z,2.70
2022-09-18T23:31:35.441Z,2.80
2022-09-18T23:34:04.007Z,3.13
2022-09-18T23:36:33.699Z,3.00
2022-09-18T23:39:08.361Z,2.80
2022-09-18T23:41:36.360Z,2.63
2022-09-18T23:44:04.114Z,2.42
2022-09-18T23:46:32.185Z,2.60
2022-09-18T23:48:59.874Z,2.40
2022-09-18T23:51:32.349Z,2.22
2022-09-18T23:54:01.123Z,2.00
2022-09-18T23:56:29.291Z,2.08
2022-09-18T23:59:04.264Z,2.20
